sensor_id;sensor_type;location;lat;lon;timestamp;P1;durP1;ratioP1;P2;durP2;ratioP2
49962;SDS011;36180;57.678;11.910;2024-02-16T00:01:52;2.22;;;1.30;;
49962;SDS011;36180;57.678;11.910;2024-02-16T00:04:19;1.40;;;1.05;;
49962;SDS011;36180;57.678;11.910;2024-02-16T00:06:47;1.20;;;1.00;;
49962;SDS011;36180;57.678;11.910;2024-02-16T00:09:15;1.10;;;1.00;;
49962;SDS011;36180;57.678;11.910;2024-02-16T00:11:42;1.48;;;1.20;;
49962;SDS011;36180;57.678;11.910;2024-02-16T00:14:10;1.30;;;1.13;;
49962;SDS011;36180;57.678;11.910;2024-02-16T00:16:37;1.25;;;1.00;;
49962;SDS011;36180;57.678;11.910;2024-02-16T00:19:04;2.17;;;1.20;;
49962;SDS011;36180;57.678;11.910;2024-02-16T00:21:31;2.88;;;1.30;;
49962;SDS011;36180;57.678;11.910;2024-02-16T00:23:58;1.02;;;0.75;;
49962;SDS011;36180;57.678;11.910;2024-02-16T00:26:29;1.02;;;0.90;;
49962;SDS011;36180;57.678;11.910;2024-02-16T00:28:56;1.60;;;1.00;;
49962;SDS011;36180;57.678;11.910;2024-02-16T00:31:23;1.15;;;0.90;;
49962;SDS011;36180;57.678;11.910;2024-02-16T00:33:50;5.78;;;0.80;;
49962;SDS011;36180;57.678;11.910;2024-02-16T00:36:18;2.65;;;1.08;;
49962;SDS011;36180;57.678;11.910;2024-02-16T00:38:45;1.00;;;0.70;;
49962;SDS011;36180;57.678;11.910;2024-02-16T00:41:16;1.15;;;0.90;;
49962;SDS011;36180;57.678;11.910;2024-02-16T00:43:46;1.85;;;0.70;;
49962;SDS011;36180;57.678;11.910;2024-02-16T00:46:13;1.27;;;0.70;;
49962;SDS011;36180;57.678;11.910;2024-02-16T00:48:40;2.50;;;0.77;;
49962;SDS011;36180;57.678;11.910;2024-02-16T00:51:07;1.13;;;0.80;;
49962;SDS011;36180;57.678;11.910;2024-02-16T00:53:34;0.93;;;0.73;;
49962;SDS011;36180;57.678;11.910;2024-02-16T00:56:01;0.63;;;0.60;;
49962;SDS011;36180;57.678;11.910;2024-02-16T00:58:29;2.97;;;0.75;;
49962;SDS011;36180;57.678;11.910;2024-02-16T01:00:57;0.70;;;0.70;;
49962;SDS011;36180;57.678;11.910;2024-02-16T01:03:24;1.73;;;0.60;;
49962;SDS011;36180;57.678;11.910;2024-02-16T01:05:51;1.10;;;0.80;;
49962;SDS011;36180;57.678;11.910;2024-02-16T01:08:18;1.42;;;0.85;;
49962;SDS011;36180;57.678;11.910;2024-02-16T01:10:45;1.83;;;0.90;;
49962;SDS011;36180;57.678;11.910;2024-02-16T01:13:13;0.98;;;0.90;;
49962;SDS011;36180;57.678;11.910;2024-02-16T01:15:40;1.10;;;1.00;;
49962;SDS011;36180;57.678;11.910;2024-02-16T01:18:09;2.78;;;1.40;;
49962;SDS011;36180;57.678;11.910;2024-02-16T01:20:37;1.52;;;1.33;;
49962;SDS011;36180;57.678;11.910;2024-02-16T01:23:04;1.60;;;0.95;;
49962;SDS011;36180;57.678;11.910;2024-02-16T01:25:31;2.42;;;1.60;;
49962;SDS011;36180;57.678;11.910;2024-02-16T01:27:58;2.83;;;1.60;;
49962;SDS011;36180;57.678;11.910;2024-02-16T01:30:25;4.05;;;1.70;;
49962;SDS011;36180;57.678;11.910;2024-02-16T01:32:52;4.32;;;1.77;;
49962;SDS011;36180;57.678;11.910;2024-02-16T01:35:21;5.60;;;1.75;;
49962;SDS011;36180;57.678;11.910;2024-02-16T01:37:48;3.65;;;2.08;;
49962;SDS011;36180;57.678;11.910;2024-02-16T01:40:15;4.93;;;2.38;;
49962;SDS011;36180;57.678;11.910;2024-02-16T01:42:42;7.45;;;2.33;;
49962;SDS011;36180;57.678;11.910;2024-02-16T01:45:10;3.78;;;2.55;;
49962;SDS011;36180;57.678;11.910;2024-02-16T01:47:37;6.00;;;3.40;;
49962;SDS011;36180;57.678;11.910;2024-02-16T01:50:05;7.75;;;3.67;;
49962;SDS011;36180;57.678;11.910;2024-02-16T01:52:34;12.45;;;3.95;;
49962;SDS011;36180;57.678;11.910;2024-02-16T01:55:02;16.60;;;5.55;;
49962;SDS011;36180;57.678;11.910;2024-02-16T01:57:30;41.22;;;6.82;;
49962;SDS011;36180;57.678;11.910;2024-02-16T01:59:57;23.75;;;6.18;;
49962;SDS011;36180;57.678;11.910;2024-02-16T02:02:26;21.27;;;5.82;;
49962;SDS011;36180;57.678;11.910;2024-02-16T02:04:53;14.52;;;5.47;;
49962;SDS011;36180;57.678;11.910;2024-02-16T02:07:24;16.60;;;5.85;;
49962;SDS011;36180;57.678;11.910;2024-02-16T02:09:53;29.75;;;6.70;;
49962;SDS011;36180;57.678;11.910;2024-02-16T02:12:20;30.92;;;7.30;;
49962;SDS011;36180;57.678;11.910;2024-02-16T02:14:48;32.22;;;6.40;;
49962;SDS011;36180;57.678;11.910;2024-02-16T02:17:15;34.55;;;6.90;;
49962;SDS011;36180;57.678;11.910;2024-02-16T02:19:43;35.97;;;7.00;;
49962;SDS011;36180;57.678;11.910;2024-02-16T02:22:13;49.35;;;7.70;;
49962;SDS011;36180;57.678;11.910;2024-02-16T02:24:41;37.60;;;6.93;;
49962;SDS011;36180;57.678;11.910;2024-02-16T02:27:09;32.45;;;6.32;;
49962;SDS011;36180;57.678;11.910;2024-02-16T02:29:36;60.67;;;7.60;;
49962;SDS011;36180;57.678;11.910;2024-02-16T02:32:04;45.05;;;7.57;;
49962;SDS011;36180;57.678;11.910;2024-02-16T02:34:31;28.33;;;6.78;;
49962;SDS011;36180;57.678;11.910;2024-02-16T02:36:58;18.08;;;5.78;;
49962;SDS011;36180;57.678;11.910;2024-02-16T02:39:27;43.83;;;6.80;;
49962;SDS011;36180;57.678;11.910;2024-02-16T02:41:54;47.33;;;6.50;;
49962;SDS011;36180;57.678;11.910;2024-02-16T02:44:21;84.57;;;8.38;;
49962;SDS011;36180;57.678;11.910;2024-02-16T02:46:47;49.22;;;7.07;;
49962;SDS011;36180;57.678;11.910;2024-02-16T02:49:14;47.70;;;7.50;;
49962;SDS011;36180;57.678;11.910;2024-02-16T02:51:41;61.72;;;8.43;;
49962;SDS011;36180;57.678;11.910;2024-02-16T02:54:08;57.38;;;8.38;;
49962;SDS011;36180;57.678;11.910;2024-02-16T02:56:37;58.22;;;8.60;;
49962;SDS011;36180;57.678;11.910;2024-02-16T02:59:04;57.28;;;8.55;;
49962;SDS011;36180;57.678;11.910;2024-02-16T03:01:31;43.80;;;7.88;;
49962;SDS011;36180;57.678;11.910;2024-02-16T03:03:58;30.90;;;7.63;;
49962;SDS011;36180;57.678;11.910;2024-02-16T03:06:26;73.28;;;9.90;;
49962;SDS011;36180;57.678;11.910;2024-02-16T03:08:53;82.10;;;10.25;;
49962;SDS011;36180;57.678;11.910;2024-02-16T03:11:20;55.47;;;8.57;;
49962;SDS011;36180;57.678;11.910;2024-02-16T03:13:48;44.72;;;7.63;;
49962;SDS011;36180;57.678;11.910;2024-02-16T03:16:15;57.33;;;8.60;;
49962;SDS011;36180;57.678;11.910;2024-02-16T03:18:42;54.65;;;7.20;;
49962;SDS011;36180;57.678;11.910;2024-02-16T03:21:12;42.85;;;7.88;;
49962;SDS011;36180;57.678;11.910;2024-02-16T03:23:41;73.18;;;8.35;;
49962;SDS011;36180;57.678;11.910;2024-02-16T03:26:13;75.43;;;8.80;;
49962;SDS011;36180;57.678;11.910;2024-02-16T03:28:40;147.30;;;11.07;;
49962;SDS011;36180;57.678;11.910;2024-02-16T03:31:15;237.60;;;13.00;;
49962;SDS011;36180;57.678;11.910;2024-02-16T03:33:43;164.40;;;11.27;;
49962;SDS011;36180;57.678;11.910;2024-02-16T03:36:10;181.70;;;12.35;;
49962;SDS011;36180;57.678;11.910;2024-02-16T03:38:40;207.52;;;12.95;;
49962;SDS011;36180;57.678;11.910;2024-02-16T03:41:08;254.18;;;13.73;;
49962;SDS011;36180;57.678;11.910;2024-02-16T03:43:36;283.98;;;14.43;;
49962;SDS011;36180;57.678;11.910;2024-02-16T03:46:03;308.92;;;15.35;;
49962;SDS011;36180;57.678;11.910;2024-02-16T03:48:31;242.90;;;13.60;;
49962;SDS011;36180;57.678;11.910;2024-02-16T03:50:58;347.98;;;15.63;;
49962;SDS011;36180;57.678;11.910;2024-02-16T03:53:26;187.82;;;11.93;;
49962;SDS011;36180;57.678;11.910;2024-02-16T03:55:53;110.85;;;11.43;;
49962;SDS011;36180;57.678;11.910;2024-02-16T03:58:21;214.60;;;12.63;;
49962;SDS011;36180;57.678;11.910;2024-02-16T04:00:48;329.55;;;15.50;;
49962;SDS011;36180;57.678;11.910;2024-02-16T04:03:15;263.50;;;14.63;;
49962;SDS011;36180;57.678;11.910;2024-02-16T04:05:44;285.73;;;15.25;;
49962;SDS011;36180;57.678;11.910;2024-02-16T04:08:11;288.67;;;15.68;;
49962;SDS011;36180;57.678;11.910;2024-02-16T04:10:38;278.90;;;15.05;;
49962;SDS011;36180;57.678;11.910;2024-02-16T04:13:06;298.08;;;14.98;;
49962;SDS011;36180;57.678;11.910;2024-02-16T04:15:33;397.65;;;18.05;;
49962;SDS011;36180;57.678;11.910;2024-02-16T04:18:00;394.83;;;18.02;;
49962;SDS011;36180;57.678;11.910;2024-02-16T04:20:27;263.08;;;16.08;;
49962;SDS011;36180;57.678;11.910;2024-02-16T04:22:55;325.48;;;18.45;;
49962;SDS011;36180;57.678;11.910;2024-02-16T04:25:22;425.33;;;20.42;;
49962;SDS011;36180;57.678;11.910;2024-02-16T04:27:49;328.98;;;19.38;;
49962;SDS011;36180;57.678;11.910;2024-02-16T04:30:17;435.40;;;19.92;;
49962;SDS011;36180;57.678;11.910;2024-02-16T04:32:44;378.17;;;19.17;;
49962;SDS011;36180;57.678;11.910;2024-02-16T04:35:11;343.30;;;18.40;;
49962;SDS011;36180;57.678;11.910;2024-02-16T04:37:40;428.88;;;21.00;;
49962;SDS011;36180;57.678;11.910;2024-02-16T04:40:08;468.85;;;21.50;;
49962;SDS011;36180;57.678;11.910;2024-02-16T04:42:37;464.20;;;21.75;;
49962;SDS011;36180;57.678;11.910;2024-02-16T04:45:05;409.33;;;21.48;;
49962;SDS011;36180;57.678;11.910;2024-02-16T04:47:33;456.15;;;24.30;;
49962;SDS011;36180;57.678;11.910;2024-02-16T04:50:01;426.55;;;22.98;;
49962;SDS011;36180;57.678;11.910;2024-02-16T04:52:28;479.85;;;24.23;;
49962;SDS011;36180;57.678;11.910;2024-02-16T04:54:55;298.77;;;20.63;;
49962;SDS011;36180;57.678;11.910;2024-02-16T04:57:23;214.93;;;19.27;;
49962;SDS011;36180;57.678;11.910;2024-02-16T04:59:50;366.77;;;21.83;;
49962;SDS011;36180;57.678;11.910;2024-02-16T05:02:17;307.80;;;19.33;;
49962;SDS011;36180;57.678;11.910;2024-02-16T05:04:44;311.30;;;18.90;;
49962;SDS011;36180;57.678;11.910;2024-02-16T05:07:11;317.15;;;20.38;;
49962;SDS011;36180;57.678;11.910;2024-02-16T05:09:40;351.45;;;20.92;;
49962;SDS011;36180;57.678;11.910;2024-02-16T05:12:08;403.10;;;23.20;;
49962;SDS011;36180;57.678;11.910;2024-02-16T05:14:36;308.17;;;20.83;;
49962;SDS011;36180;57.678;11.910;2024-02-16T05:17:03;303.33;;;21.65;;
49962;SDS011;36180;57.678;11.910;2024-02-16T05:19:32;181.57;;;18.23;;
49962;SDS011;36180;57.678;11.910;2024-02-16T05:22:00;184.32;;;17.80;;
49962;SDS011;36180;57.678;11.910;2024-02-16T05:24:27;205.32;;;19.20;;
49962;SDS011;36180;57.678;11.910;2024-02-16T05:26:54;386.67;;;22.65;;
49962;SDS011;36180;57.678;11.910;2024-02-16T05:29:21;407.02;;;23.27;;
49962;SDS011;36180;57.678;11.910;2024-02-16T05:31:51;380.00;;;21.52;;
49962;SDS011;36180;57.678;11.910;2024-02-16T05:34:18;424.50;;;22.30;;
49962;SDS011;36180;57.678;11.910;2024-02-16T05:36:45;377.45;;;19.50;;
49962;SDS011;36180;57.678;11.910;2024-02-16T05:39:13;363.98;;;19.58;;
49962;SDS011;36180;57.678;11.910;2024-02-16T05:41:51;212.50;;;17.30;;
49962;SDS011;36180;57.678;11.910;2024-02-16T05:44:19;246.95;;;19.08;;
49962;SDS011;36180;57.678;11.910;2024-02-16T05:46:46;350.67;;;18.63;;
49962;SDS011;36180;57.678;11.910;2024-02-16T05:49:15;258.05;;;17.08;;
49962;SDS011;36180;57.678;11.910;2024-02-16T05:51:42;322.77;;;19.25;;
49962;SDS011;36180;57.678;11.910;2024-02-16T05:54:26;149.65;;;15.32;;
49962;SDS011;36180;57.678;11.910;2024-02-16T05:56:53;201.65;;;15.60;;
49962;SDS011;36180;57.678;11.910;2024-02-16T05:59:20;124.65;;;14.80;;
49962;SDS011;36180;57.678;11.910;2024-02-16T06:01:50;113.78;;;14.70;;
49962;SDS011;36180;57.678;11.910;2024-02-16T06:07:52;83.15;;;14.05;;
49962;SDS011;36180;57.678;11.910;2024-02-16T06:10:21;73.55;;;14.57;;
49962;SDS011;36180;57.678;11.910;2024-02-16T06:12:48;119.65;;;17.60;;
49962;SDS011;36180;57.678;11.910;2024-02-16T06:15:15;128.55;;;17.33;;
49962;SDS011;36180;57.678;11.910;2024-02-16T06:17:42;51.65;;;13.45;;
49962;SDS011;36180;57.678;11.910;2024-02-16T06:20:09;89.80;;;14.50;;
49962;SDS011;36180;57.678;11.910;2024-02-16T06:22:36;108.43;;;16.48;;
49962;SDS011;36180;57.678;11.910;2024-02-16T06:25:05;131.75;;;16.52;;
49962;SDS011;36180;57.678;11.910;2024-02-16T06:27:32;61.38;;;13.48;;
49962;SDS011;36180;57.678;11.910;2024-02-16T06:29:59;55.35;;;12.10;;
49962;SDS011;36180;57.678;11.910;2024-02-16T06:32:26;27.60;;;9.50;;
49962;SDS011;36180;57.678;11.910;2024-02-16T06:34:53;31.42;;;9.32;;
49962;SDS011;36180;57.678;11.910;2024-02-16T06:37:21;27.58;;;9.15;;
49962;SDS011;36180;57.678;11.910;2024-02-16T06:39:47;28.10;;;9.73;;
49962;SDS011;36180;57.678;11.910;2024-02-16T06:42:16;29.35;;;9.93;;
49962;SDS011;36180;57.678;11.910;2024-02-16T06:44:43;27.48;;;8.80;;
49962;SDS011;36180;57.678;11.910;2024-02-16T06:47:10;29.55;;;9.38;;
49962;SDS011;36180;57.678;11.910;2024-02-16T06:49:37;28.33;;;10.00;;
49962;SDS011;36180;57.678;11.910;2024-02-16T06:52:04;54.85;;;10.52;;
49962;SDS011;36180;57.678;11.910;2024-02-16T06:54:31;62.00;;;13.18;;
49962;SDS011;36180;57.678;11.910;2024-02-16T06:56:58;64.10;;;14.65;;
49962;SDS011;36180;57.678;11.910;2024-02-16T06:59:27;71.45;;;15.63;;
49962;SDS011;36180;57.678;11.910;2024-02-16T07:01:54;70.95;;;16.00;;
49962;SDS011;36180;57.678;11.910;2024-02-16T07:04:21;53.75;;;16.55;;
49962;SDS011;36180;57.678;11.910;2024-02-16T07:06:48;52.75;;;15.75;;
49962;SDS011;36180;57.678;11.910;2024-02-16T07:09:15;49.85;;;14.80;;
49962;SDS011;36180;57.678;11.910;2024-02-16T07:11:42;66.10;;;16.92;;
49962;SDS011;36180;57.678;11.910;2024-02-16T07:14:11;80.78;;;18.88;;
49962;SDS011;36180;57.678;11.910;2024-02-16T07:16:40;86.28;;;19.27;;
49962;SDS011;36180;57.678;11.910;2024-02-16T07:19:06;94.20;;;19.80;;
49962;SDS011;36180;57.678;11.910;2024-02-16T07:21:34;83.38;;;18.35;;
49962;SDS011;36180;57.678;11.910;2024-02-16T07:24:01;51.15;;;16.08;;
49962;SDS011;36180;57.678;11.910;2024-02-16T07:26:28;63.30;;;15.90;;
49962;SDS011;36180;57.678;11.910;2024-02-16T07:28:58;63.53;;;16.20;;
49962;SDS011;36180;57.678;11.910;2024-02-16T07:31:25;68.45;;;15.32;;
49962;SDS011;36180;57.678;11.910;2024-02-16T07:33:58;77.50;;;15.88;;
49962;SDS011;36180;57.678;11.910;2024-02-16T07:36:25;64.50;;;15.30;;
49962;SDS011;36180;57.678;11.910;2024-02-16T07:38:51;68.18;;;15.02;;
49962;SDS011;36180;57.678;11.910;2024-02-16T07:41:18;67.38;;;14.38;;
49962;SDS011;36180;57.678;11.910;2024-02-16T07:43:45;94.88;;;15.50;;
49962;SDS011;36180;57.678;11.910;2024-02-16T07:46:12;86.38;;;12.70;;
49962;SDS011;36180;57.678;11.910;2024-02-16T07:48:40;88.35;;;12.63;;
49962;SDS011;36180;57.678;11.910;2024-02-16T07:51:08;37.13;;;11.52;;
49962;SDS011;36180;57.678;11.910;2024-02-16T07:53:35;60.47;;;11.88;;
49962;SDS011;36180;57.678;11.910;2024-02-16T07:56:03;64.10;;;13.00;;
49962;SDS011;36180;57.678;11.910;2024-02-16T07:58:30;34.97;;;12.20;;
49962;SDS011;36180;57.678;11.910;2024-02-16T08:00:57;33.70;;;11.13;;
49962;SDS011;36180;57.678;11.910;2024-02-16T08:03:24;34.75;;;11.90;;
49962;SDS011;36180;57.678;11.910;2024-02-16T08:05:51;35.50;;;12.88;;
49962;SDS011;36180;57.678;11.910;2024-02-16T08:08:20;40.60;;;14.85;;
49962;SDS011;36180;57.678;11.910;2024-02-16T08:10:48;42.22;;;15.80;;
49962;SDS011;36180;57.678;11.910;2024-02-16T08:13:17;50.10;;;17.67;;
49962;SDS011;36180;57.678;11.910;2024-02-16T08:15:46;44.30;;;19.25;;
49962;SDS011;36180;57.678;11.910;2024-02-16T08:18:13;48.25;;;19.98;;
49962;SDS011;36180;57.678;11.910;2024-02-16T08:20:41;48.95;;;20.33;;
49962;SDS011;36180;57.678;11.910;2024-02-16T08:23:08;61.42;;;22.08;;
49962;SDS011;36180;57.678;11.910;2024-02-16T08:25:37;56.47;;;23.08;;
49962;SDS011;36180;57.678;11.910;2024-02-16T08:28:04;56.10;;;22.05;;
49962;SDS011;36180;57.678;11.910;2024-02-16T08:30:31;63.72;;;24.48;;
49962;SDS011;36180;57.678;11.910;2024-02-16T08:32:59;75.05;;;24.77;;
49962;SDS011;36180;57.678;11.910;2024-02-16T08:35:26;77.70;;;27.00;;
49962;SDS011;36180;57.678;11.910;2024-02-16T08:37:53;59.72;;;27.10;;
49962;SDS011;36180;57.678;11.910;2024-02-16T08:40:20;70.15;;;27.45;;
49962;SDS011;36180;57.678;11.910;2024-02-16T08:42:50;59.80;;;25.95;;
49962;SDS011;36180;57.678;11.910;2024-02-16T08:45:17;63.15;;;25.92;;
49962;SDS011;36180;57.678;11.910;2024-02-16T08:47:44;66.22;;;28.23;;
49962;SDS011;36180;57.678;11.910;2024-02-16T08:50:11;65.38;;;28.95;;
49962;SDS011;36180;57.678;11.910;2024-02-16T08:52:38;57.88;;;26.27;;
49962;SDS011;36180;57.678;11.910;2024-02-16T08:55:06;58.30;;;26.80;;
49962;SDS011;36180;57.678;11.910;2024-02-16T08:57:33;63.78;;;26.88;;
49962;SDS011;36180;57.678;11.910;2024-02-16T09:00:01;61.15;;;26.30;;
49962;SDS011;36180;57.678;11.910;2024-02-16T09:02:30;57.30;;;26.75;;
49962;SDS011;36180;57.678;11.910;2024-02-16T09:04:57;65.13;;;27.40;;
49962;SDS011;36180;57.678;11.910;2024-02-16T09:07:24;56.10;;;25.45;;
49962;SDS011;36180;57.678;11.910;2024-02-16T09:09:52;55.92;;;26.00;;
49962;SDS011;36180;57.678;11.910;2024-02-16T09:12:21;61.17;;;27.35;;
49962;SDS011;36180;57.678;11.910;2024-02-16T09:14:48;56.85;;;26.35;;
49962;SDS011;36180;57.678;11.910;2024-02-16T09:17:17;53.80;;;27.10;;
49962;SDS011;36180;57.678;11.910;2024-02-16T09:19:44;61.83;;;28.13;;
49962;SDS011;36180;57.678;11.910;2024-02-16T09:22:11;66.63;;;28.65;;
49962;SDS011;36180;57.678;11.910;2024-02-16T09:24:38;72.07;;;29.23;;
49962;SDS011;36180;57.678;11.910;2024-02-16T09:27:06;67.03;;;29.00;;
49962;SDS011;36180;57.678;11.910;2024-02-16T09:29:35;56.90;;;28.13;;
49962;SDS011;36180;57.678;11.910;2024-02-16T09:32:02;59.50;;;28.48;;
49962;SDS011;36180;57.678;11.910;2024-02-16T09:34:30;58.28;;;27.50;;
49962;SDS011;36180;57.678;11.910;2024-02-16T09:36:57;68.25;;;28.85;;
49962;SDS011;36180;57.678;11.910;2024-02-16T09:39:24;60.67;;;27.75;;
49962;SDS011;36180;57.678;11.910;2024-02-16T09:41:53;60.75;;;27.20;;
49962;SDS011;36180;57.678;11.910;2024-02-16T09:44:20;60.42;;;27.70;;
49962;SDS011;36180;57.678;11.910;2024-02-16T09:46:50;62.13;;;29.75;;
49962;SDS011;36180;57.678;11.910;2024-02-16T09:49:18;60.50;;;27.02;;
49962;SDS011;36180;57.678;11.910;2024-02-16T09:51:47;61.03;;;28.05;;
49962;SDS011;36180;57.678;11.910;2024-02-16T09:54:15;69.28;;;28.33;;
49962;SDS011;36180;57.678;11.910;2024-02-16T09:56:42;57.60;;;27.13;;
49962;SDS011;36180;57.678;11.910;2024-02-16T09:59:11;61.75;;;28.27;;
49962;SDS011;36180;57.678;11.910;2024-02-16T10:01:38;63.53;;;28.15;;
49962;SDS011;36180;57.678;11.910;2024-02-16T10:04:08;68.43;;;29.63;;
49962;SDS011;36180;57.678;11.910;2024-02-16T10:06:46;68.95;;;28.45;;
49962;SDS011;36180;57.678;11.910;2024-02-16T10:09:21;66.07;;;28.08;;
49962;SDS011;36180;57.678;11.910;2024-02-16T10:11:50;66.32;;;29.52;;
49962;SDS011;36180;57.678;11.910;2024-02-16T10:14:16;69.05;;;28.35;;
49962;SDS011;36180;57.678;11.910;2024-02-16T10:16:44;70.78;;;28.88;;
49962;SDS011;36180;57.678;11.910;2024-02-16T10:19:12;67.20;;;29.17;;
49962;SDS011;36180;57.678;11.910;2024-02-16T10:21:39;67.45;;;29.95;;
49962;SDS011;36180;57.678;11.910;2024-02-16T10:24:08;69.43;;;30.73;;
49962;SDS011;36180;57.678;11.910;2024-02-16T10:26:38;79.07;;;31.45;;
49962;SDS011;36180;57.678;11.910;2024-02-16T10:29:08;66.68;;;30.17;;
49962;SDS011;36180;57.678;11.910;2024-02-16T10:31:35;71.75;;;29.75;;
49962;SDS011;36180;57.678;11.910;2024-02-16T10:34:04;72.68;;;31.08;;
49962;SDS011;36180;57.678;11.910;2024-02-16T10:36:32;73.82;;;29.58;;
49962;SDS011;36180;57.678;11.910;2024-02-16T10:39:01;63.20;;;28.85;;
49962;SDS011;36180;57.678;11.910;2024-02-16T10:41:32;71.38;;;30.40;;
49962;SDS011;36180;57.678;11.910;2024-02-16T10:44:01;63.65;;;29.25;;
49962;SDS011;36180;57.678;11.910;2024-02-16T10:46:29;59.78;;;29.00;;
49962;SDS011;36180;57.678;11.910;2024-02-16T10:48:56;61.53;;;28.35;;
49962;SDS011;36180;57.678;11.910;2024-02-16T10:51:24;62.45;;;29.77;;
49962;SDS011;36180;57.678;11.910;2024-02-16T10:53:55;61.88;;;30.45;;
49962;SDS011;36180;57.678;11.910;2024-02-16T10:56:26;63.92;;;28.55;;
49962;SDS011;36180;57.678;11.910;2024-02-16T10:58:56;58.30;;;28.63;;
49962;SDS011;36180;57.678;11.910;2024-02-16T11:01:27;57.13;;;27.65;;
49962;SDS011;36180;57.678;11.910;2024-02-16T11:04:00;64.28;;;29.95;;
49962;SDS011;36180;57.678;11.910;2024-02-16T11:06:28;61.08;;;29.33;;
49962;SDS011;36180;57.678;11.910;2024-02-16T11:09:00;60.92;;;28.17;;
49962;SDS011;36180;57.678;11.910;2024-02-16T11:11:32;51.22;;;28.10;;
49962;SDS011;36180;57.678;11.910;2024-02-16T11:14:02;59.80;;;27.27;;
49962;SDS011;36180;57.678;11.910;2024-02-16T11:16:30;49.13;;;25.67;;
49962;SDS011;36180;57.678;11.910;2024-02-16T11:18:57;54.03;;;25.40;;
49962;SDS011;36180;57.678;11.910;2024-02-16T11:21:24;55.15;;;26.10;;
49962;SDS011;36180;57.678;11.910;2024-02-16T11:23:51;53.97;;;26.85;;
49962;SDS011;36180;57.678;11.910;2024-02-16T11:26:18;61.85;;;27.83;;
49962;SDS011;36180;57.678;11.910;2024-02-16T11:28:45;52.38;;;27.65;;
49962;SDS011;36180;57.678;11.910;2024-02-16T11:31:13;52.50;;;25.85;;
49962;SDS011;36180;57.678;11.910;2024-02-16T11:33:43;51.25;;;26.38;;
49962;SDS011;36180;57.678;11.910;2024-02-16T11:36:11;50.38;;;26.60;;
49962;SDS011;36180;57.678;11.910;2024-02-16T11:38:39;52.50;;;26.83;;
49962;SDS011;36180;57.678;11.910;2024-02-16T11:41:06;49.17;;;25.63;;
49962;SDS011;36180;57.678;11.910;2024-02-16T11:43:34;56.60;;;26.60;;
49962;SDS011;36180;57.678;11.910;2024-02-16T11:46:10;61.25;;;26.77;;
49962;SDS011;36180;57.678;11.910;2024-02-16T11:48:39;47.80;;;26.67;;
49962;SDS011;36180;57.678;11.910;2024-02-16T11:51:06;56.00;;;26.10;;
49962;SDS011;36180;57.678;11.910;2024-02-16T11:53:34;43.17;;;23.80;;
49962;SDS011;36180;57.678;11.910;2024-02-16T11:56:01;51.90;;;24.33;;
49962;SDS011;36180;57.678;11.910;2024-02-16T11:58:28;48.90;;;25.02;;
49962;SDS011;36180;57.678;11.910;2024-02-16T12:00:56;43.47;;;22.63;;
49962;SDS011;36180;57.678;11.910;2024-02-16T12:03:25;56.42;;;23.20;;
49962;SDS011;36180;57.678;11.910;2024-02-16T12:05:55;43.05;;;22.33;;
49962;SDS011;36180;57.678;11.910;2024-02-16T12:08:22;42.88;;;21.45;;
49962;SDS011;36180;57.678;11.910;2024-02-16T12:10:51;39.83;;;22.08;;
49962;SDS011;36180;57.678;11.910;2024-02-16T12:13:18;42.78;;;22.13;;
49962;SDS011;36180;57.678;11.910;2024-02-16T12:15:46;42.97;;;22.75;;
49962;SDS011;36180;57.678;11.910;2024-02-16T12:18:20;45.40;;;23.90;;
49962;SDS011;36180;57.678;11.910;2024-02-16T12:20:58;38.50;;;23.42;;
49962;SDS011;36180;57.678;11.910;2024-02-16T12:23:26;45.28;;;24.13;;
49962;SDS011;36180;57.678;11.910;2024-02-16T12:25:53;42.50;;;24.40;;
49962;SDS011;36180;57.678;11.910;2024-02-16T12:28:23;45.38;;;24.25;;
49962;SDS011;36180;57.678;11.910;2024-02-16T12:30:51;43.85;;;24.30;;
49962;SDS011;36180;57.678;11.910;2024-02-16T12:33:18;47.53;;;23.73;;
49962;SDS011;36180;57.678;11.910;2024-02-16T12:35:45;42.72;;;23.02;;
49962;SDS011;36180;57.678;11.910;2024-02-16T12:38:13;38.97;;;22.20;;
49962;SDS011;36180;57.678;11.910;2024-02-16T12:40:42;42.72;;;22.98;;
49962;SDS011;36180;57.678;11.910;2024-02-16T12:43:09;42.20;;;21.70;;
49962;SDS011;36180;57.678;11.910;2024-02-16T12:45:37;37.33;;;21.75;;
49962;SDS011;36180;57.678;11.910;2024-02-16T12:48:05;42.47;;;22.38;;
49962;SDS011;36180;57.678;11.910;2024-02-16T12:50:32;38.28;;;22.40;;
49962;SDS011;36180;57.678;11.910;2024-02-16T12:52:59;45.85;;;22.08;;
49962;SDS011;36180;57.678;11.910;2024-02-16T12:55:27;43.13;;;23.42;;
49962;SDS011;36180;57.678;11.910;2024-02-16T12:57:55;45.25;;;22.95;;
49962;SDS011;36180;57.678;11.910;2024-02-16T13:00:22;33.63;;;21.42;;
49962;SDS011;36180;57.678;11.910;2024-02-16T13:02:50;37.55;;;21.85;;
49962;SDS011;36180;57.678;11.910;2024-02-16T13:05:17;37.58;;;21.10;;
49962;SDS011;36180;57.678;11.910;2024-02-16T13:07:44;35.58;;;20.83;;
49962;SDS011;36180;57.678;11.910;2024-02-16T13:10:11;49.15;;;21.52;;
49962;SDS011;36180;57.678;11.910;2024-02-16T13:12:39;32.13;;;19.73;;
49962;SDS011;36180;57.678;11.910;2024-02-16T13:15:08;33.38;;;19.80;;
49962;SDS011;36180;57.678;11.910;2024-02-16T13:17:35;29.95;;;18.90;;
49962;SDS011;36180;57.678;11.910;2024-02-16T13:20:02;31.40;;;19.27;;
49962;SDS011;36180;57.678;11.910;2024-02-16T13:22:34;33.38;;;18.88;;
49962;SDS011;36180;57.678;11.910;2024-02-16T13:25:02;31.45;;;17.80;;
49962;SDS011;36180;57.678;11.910;2024-02-16T13:27:29;22.52;;;15.43;;
49962;SDS011;36180;57.678;11.910;2024-02-16T13:29:57;28.50;;;17.90;;
49962;SDS011;36180;57.678;11.910;2024-02-16T13:32:24;28.48;;;17.65;;
49962;SDS011;36180;57.678;11.910;2024-02-16T13:34:51;27.08;;;17.15;;
49962;SDS011;36180;57.678;11.910;2024-02-16T13:37:18;34.97;;;18.23;;
49962;SDS011;36180;57.678;11.910;2024-02-16T13:39:45;28.27;;;17.83;;
49962;SDS011;36180;57.678;11.910;2024-02-16T13:42:12;33.88;;;16.60;;
49962;SDS011;36180;57.678;11.910;2024-02-16T13:44:40;27.30;;;15.82;;
49962;SDS011;36180;57.678;11.910;2024-02-16T13:47:08;27.20;;;15.57;;
49962;SDS011;36180;57.678;11.910;2024-02-16T13:49:35;27.40;;;16.50;;
49962;SDS011;36180;57.678;11.910;2024-02-16T13:52:02;31.88;;;19.55;;
49962;SDS011;36180;57.678;11.910;2024-02-16T13:54:29;37.38;;;20.13;;
49962;SDS011;36180;57.678;11.910;2024-02-16T13:56:56;35.42;;;19.02;;
49962;SDS011;36180;57.678;11.910;2024-02-16T13:59:23;35.78;;;20.45;;
49962;SDS011;36180;57.678;11.910;2024-02-16T14:01:50;33.28;;;20.13;;
49962;SDS011;36180;57.678;11.910;2024-02-16T14:04:18;34.70;;;19.80;;
49962;SDS011;36180;57.678;11.910;2024-02-16T14:06:47;33.33;;;20.33;;
49962;SDS011;36180;57.678;11.910;2024-02-16T14:09:14;34.33;;;20.50;;
49962;SDS011;36180;57.678;11.910;2024-02-16T14:11:41;44.00;;;22.83;;
49962;SDS011;36180;57.678;11.910;2024-02-16T14:14:11;41.88;;;22.48;;
49962;SDS011;36180;57.678;11.910;2024-02-16T14:16:38;35.83;;;22.70;;
49962;SDS011;36180;57.678;11.910;2024-02-16T14:19:05;41.53;;;22.67;;